Time;durP1;ratioP1;P1;durP2;ratioP2;P2;SDS_P1;SDS_P2;PMS_P1;PMS_P2;Temp;Humidity;BMP_temperature;BMP_pressure;BME280_temperature;BME280_humidity;BME280_pressure;Samples;Min_cycle;Max_cycle;Signal;HPM_P1;HPM_P2
2021/01/27 00:02:10;;;;;;;7.03;5.63;;;6.00;99.90;;;;;;5026062;28;20029;-55
2021/01/27 00:04:36;;;;;;;6.35;5.00;;;6.10;99.90;;;;;;5027483;28;20045;-57
2021/01/27 00:07:02;;;;;;;5.38;4.80;;;6.10;99.90;;;;;;5026954;28;21017;-57
2021/01/27 00:09:29;;;;;;;6.22;5.63;;;6.10;99.90;;;;;;5026684;28;20072;-59
2021/01/27 00:11:55;;;;;;;8.05;5.72;;;6.00;99.90;;;;;;5027132;28;20040;-57
2021/01/27 00:14:21;;;;;;;6.43;5.18;;;6.00;99.90;;;;;;5029831;28;20061;-59
2021/01/27 00:16:47;;;;;;;5.82;5.05;;;6.00;99.90;;;;;;5026791;28;20499;-57
2021/01/27 00:19:12;;;;;;;7.35;5.57;;;6.00;99.90;;;;;;5026726;28;20059;-57
2021/01/27 00:21:39;;;;;;;7.20;5.65;;;6.00;99.90;;;;;;5026809;28;20111;-55
2021/01/27 00:24:05;;;;;;;6.10;5.13;;;6.00;99.90;;;;;;5025000;28;20036;-58
2021/01/27 00:26:31;;;;;;;5.45;4.90;;;6.00;99.90;;;;;;5025159;28;20047;-56
2021/01/27 00:28:56;;;;;;;6.10;4.60;;;6.10;99.90;;;;;;5025476;28;20033;-55
2021/01/27 00:31:22;;;;;;;6.80;5.03;;;6.20;99.90;;;;;;5028937;28;20444;-58
2021/01/27 00:33:48;;;;;;;5.35;4.38;;;6.20;99.90;;;;;;5030401;28;20037;-57
2021/01/27 00:36:14;;;;;;;5.35;4.85;;;6.20;99.90;;;;;;5035311;28;20041;-55
2021/01/27 00:38:39;;;;;;;7.38;5.38;;;6.20;99.90;;;;;;5033433;28;20034;-58
2021/01/27 00:41:05;;;;;;;7.22;5.68;;;6.10;99.90;;;;;;5031386;28;20033;-59
2021/01/27 00:43:31;;;;;;;5.78;4.75;;;6.10;99.90;;;;;;5029968;28;20061;-58
2021/01/27 00:45:57;;;;;;;5.72;4.75;;;6.10;99.90;;;;;;5035354;28;20544;-57
2021/01/27 00:48:23;;;;;;;7.43;5.28;;;6.20;99.90;;;;;;5030298;28;20467;-58
2021/01/27 00:50:50;;;;;;;6.75;5.85;;;6.20;99.90;;;;;;5035727;28;20022;-56
2021/01/27 00:53:16;;;;;;;7.00;5.32;;;6.20;99.90;;;;;;5034191;28;20521;-57
2021/01/27 00:55:42;;;;;;;6.07;5.35;;;6.20;99.90;;;;;;5040235;28;20040;-58
2021/01/27 00:58:08;;;;;;;8.02;4.97;;;6.30;99.90;;;;;;5029792;28;20029;-58
2021/01/27 01:00:37;;;;;;;5.85;4.85;;;6.30;99.90;;;;;;5039313;28;20025;-58
2021/01/27 01:03:04;;;;;;;7.93;5.57;;;6.30;99.90;;;;;;5033418;28;20062;-59
2021/01/27 01:05:33;;;;;;;7.28;6.13;;;6.30;99.90;;;;;;5014777;28;20033;-59
2021/01/27 01:07:59;;;;;;;8.07;6.35;;;6.30;99.90;;;;;;5028726;28;20026;-57
2021/01/27 01:10:27;;;;;;;7.00;6.18;;;6.20;99.90;;;;;;5044008;28;20032;-56
2021/01/27 01:12:54;;;;;;;6.93;6.22;;;6.20;99.90;;;;;;5034603;28;20026;-56
2021/01/27 01:15:20;;;;;;;8.52;6.90;;;6.20;99.90;;;;;;5033310;28;20032;-59
2021/01/27 01:17:46;;;;;;;8.60;6.97;;;6.30;99.90;;;;;;5034980;28;20502;-57
2021/01/27 01:20:15;;;;;;;7.90;7.10;;;6.30;99.90;;;;;;5036090;28;20048;-60
2021/01/27 01:22:46;;;;;;;9.00;7.40;;;6.30;99.90;;;;;;5032382;28;20040;-58
2021/01/27 01:25:13;;;;;;;9.45;7.95;;;6.30;99.90;;;;;;5021207;28;20044;-57
2021/01/27 01:27:41;;;;;;;11.15;8.45;;;6.30;99.90;;;;;;5032107;28;20398;-58
2021/01/27 01:30:26;;;;;;;10.73;8.52;;;6.30;99.90;;;;;;5043043;28;20029;-59
2021/01/27 01:32:57;;;;;;;17.10;12.93;;;6.30;99.90;;;;;;5040329;28;20029;-57
2021/01/27 01:35:24;;;;;;;12.18;10.07;;;6.40;99.90;;;;;;5053740;28;20072;-56
2021/01/27 01:37:50;;;;;;;14.95;11.88;;;6.40;99.90;;;;;;5034088;28;20060;-59
2021/01/27 01:40:22;;;;;;;12.95;10.45;;;6.40;99.90;;;;;;5036350;28;20585;-58
2021/01/27 01:42:59;;;;;;;10.63;9.27;;;6.40;99.90;;;;;;5032127;28;20099;-59
2021/01/27 01:45:44;;;;;;;10.57;9.48;;;6.40;99.90;;;;;;5015198;28;20391;-56
2021/01/27 01:48:30;;;;;;;16.33;10.77;;;6.40;99.90;;;;;;5041795;28;20033;-57
2021/01/27 01:51:12;;;;;;;55.08;31.38;;;6.40;99.90;;;;;;5041286;28;20040;-58
2021/01/27 01:53:38;;;;;;;16.30;11.63;;;6.40;99.90;;;;;;5033095;28;20517;-57
2021/01/27 01:56:08;;;;;;;11.77;9.63;;;6.40;99.90;;;;;;5032906;28;20038;-56
2021/01/27 01:58:37;;;;;;;12.07;10.10;;;6.50;99.90;;;;;;5031020;28;20029;-55
2021/01/27 02:01:03;;;;;;;13.27;10.50;;;6.60;99.90;;;;;;5035043;28;20053;-54
2021/01/27 02:03:34;;;;;;;13.85;10.20;;;6.60;99.90;;;;;;5034925;28;20056;-56
2021/01/27 02:06:02;;;;;;;11.82;10.10;;;6.60;99.90;;;;;;5040495;28;20463;-55
2021/01/27 02:08:29;;;;;;;12.00;10.25;;;6.60;99.90;;;;;;5034327;28;20183;-59
2021/01/27 02:10:55;;;;;;;13.70;11.45;;;6.60;99.90;;;;;;5037802;28;20085;-57
2021/01/27 02:14:00;;;;;;;12.18;10.38;;;6.60;99.90;;;;;;5031022;28;20138;-55
2021/01/27 02:17:00;;;;;;;13.05;11.18;;;6.60;99.90;;;;;;5031036;28;20034;-56
2021/01/27 02:20:10;;;;;;;12.75;10.55;;;6.60;99.90;;;;;;5023266;28;20530;-57
2021/01/27 02:22:57;;;;;;;13.27;10.57;;;6.50;99.90;;;;;;5039115;28;20069;-57
2021/01/27 02:25:38;;;;;;;16.85;11.57;;;6.50;99.90;;;;;;5071130;28;20106;-55
2021/01/27 02:28:08;;;;;;;14.68;11.52;;;6.60;99.90;;;;;;5031551;28;20025;-55
2021/01/27 02:30:53;;;;;;;19.30;13.05;;;6.60;99.90;;;;;;5045280;28;20371;-56
2021/01/27 02:33:31;;;;;;;16.25;12.20;;;6.70;99.90;;;;;;5036224;28;20065;-56
2021/01/27 02:36:14;;;;;;;16.38;11.57;;;6.70;99.90;;;;;;5032290;28;20629;-57
2021/01/27 02:38:50;;;;;;;14.73;11.70;;;6.70;99.90;;;;;;5031521;28;20030;-59
2021/01/27 02:41:24;;;;;;;18.13;11.80;;;6.60;99.90;;;;;;5031848;28;20107;-56
2021/01/27 02:43:55;;;;;;;17.60;12.55;;;6.60;99.90;;;;;;5032059;28;20025;-56
2021/01/27 02:46:44;;;;;;;16.60;12.45;;;6.60;99.90;;;;;;5032272;28;20349;-55
2021/01/27 02:49:21;;;;;;;15.65;11.93;;;6.70;99.90;;;;;;5037803;28;20037;-56
2021/01/27 02:52:26;;;;;;;18.80;13.68;;;6.70;99.90;;;;;;5048717;28;20025;-57
2021/01/27 02:55:02;;;;;;;19.58;13.23;;;6.70;99.90;;;;;;5026444;28;20103;-57
2021/01/27 02:57:40;;;;;;;20.23;13.35;;;6.80;99.90;;;;;;5022550;28;20099;-55
2021/01/27 03:00:29;;;;;;;17.88;11.93;;;6.80;99.90;;;;;;5033084;28;21604;-57
2021/01/27 03:03:15;;;;;;;16.80;12.30;;;6.90;99.90;;;;;;5030494;28;20025;-57
2021/01/27 03:05:49;;;;;;;19.23;13.40;;;6.90;99.90;;;;;;5028513;28;20041;-56
2021/01/27 03:08:19;;;;;;;17.90;12.95;;;6.90;99.90;;;;;;5030860;28;20075;-55
2021/01/27 03:10:56;;;;;;;18.30;12.73;;;6.90;99.90;;;;;;5034616;28;20036;-57
2021/01/27 03:13:22;;;;;;;20.40;13.43;;;6.80;99.90;;;;;;5030016;28;20103;-56
2021/01/27 03:15:49;;;;;;;20.20;12.93;;;6.70;99.90;;;;;;5031491;28;20037;-56
2021/01/27 03:18:21;;;;;;;18.15;13.77;;;6.80;99.90;;;;;;5031222;28;20021;-55
2021/01/27 03:20:52;;;;;;;19.75;13.50;;;6.80;99.90;;;;;;5031339;28;20030;-56
2021/01/27 03:23:26;;;;;;;20.02;13.57;;;6.70;99.90;;;;;;5030985;28;20099;-55
2021/01/27 03:26:01;;;;;;;20.15;12.90;;;6.70;99.90;;;;;;5037805;28;20026;-56
2021/01/27 03:28:43;;;;;;;17.65;12.75;;;6.60;99.90;;;;;;5018687;28;20444;-56
2021/01/27 03:31:09;;;;;;;16.80;11.77;;;6.50;99.90;;;;;;5038840;28;20459;-55
2021/01/27 03:33:42;;;;;;;19.42;12.95;;;6.50;99.90;;;;;;5030496;28;20029;-58
2021/01/27 03:36:11;;;;;;;19.15;13.65;;;6.50;99.90;;;;;;5031045;28;20442;-55
2021/01/27 03:38:43;;;;;;;18.70;12.73;;;6.70;99.90;;;;;;5034741;28;20119;-56
2021/01/27 03:41:25;;;;;;;19.25;13.57;;;6.70;99.90;;;;;;5018116;28;20364;-58
2021/01/27 03:44:12;;;;;;;20.42;13.23;;;6.80;99.90;;;;;;5031341;28;20029;-55
2021/01/27 03:46:53;;;;;;;16.13;12.48;;;6.80;99.90;;;;;;5031505;28;20038;-53
2021/01/27 03:49:41;;;;;;;19.65;12.90;;;6.70;99.90;;;;;;5034470;28;20033;-57
2021/01/27 03:52:18;;;;;;;20.63;13.35;;;6.70;99.90;;;;;;5031081;28;20108;-56
2021/01/27 03:54:52;;;;;;;24.15;13.63;;;6.70;99.90;;;;;;5029804;28;20112;-57
2021/01/27 03:57:22;;;;;;;18.60;12.35;;;6.70;99.90;;;;;;5034356;28;20033;-58
2021/01/27 03:59:51;;;;;;;20.85;12.90;;;6.70;99.90;;;;;;5037344;28;20441;-58
2021/01/27 04:02:20;;;;;;;20.00;12.52;;;6.80;99.90;;;;;;5031188;28;20037;-55
2021/01/27 04:04:47;;;;;;;18.17;12.35;;;6.80;99.90;;;;;;5030005;28;20080;-56
2021/01/27 04:07:13;;;;;;;22.48;11.88;;;6.80;99.90;;;;;;5030575;28;20033;-56
2021/01/27 04:09:39;;;;;;;15.73;11.20;;;6.80;99.90;;;;;;5031392;28;20032;-55
2021/01/27 04:12:05;;;;;;;15.63;11.13;;;7.00;99.90;;;;;;5030299;28;20029;-57
2021/01/27 04:14:30;;;;;;;16.15;10.88;;;7.10;99.90;;;;;;5030087;28;20029;-55
2021/01/27 04:16:56;;;;;;;17.40;12.27;;;7.10;99.90;;;;;;5030693;28;20042;-54
2021/01/27 04:19:22;;;;;;;19.42;12.50;;;7.20;99.90;;;;;;5042376;28;20029;-56
2021/01/27 04:21:47;;;;;;;16.52;11.95;;;7.20;99.90;;;;;;5031085;28;20029;-58
2021/01/27 04:24:13;;;;;;;18.48;12.93;;;7.30;99.90;;;;;;5033362;28;20493;-55
2021/01/27 04:26:39;;;;;;;21.30;13.40;;;7.30;99.90;;;;;;5037895;28;20029;-56
2021/01/27 04:29:05;;;;;;;21.23;12.65;;;7.20;99.90;;;;;;5036630;28;20040;-54
2021/01/27 04:31:31;;;;;;;19.88;12.70;;;7.30;99.90;;;;;;5031358;28;20079;-56
2021/01/27 04:33:56;;;;;;;19.55;12.48;;;7.30;99.90;;;;;;5030290;28;20038;-56
2021/01/27 04:36:23;;;;;;;19.45;13.43;;;7.30;99.90;;;;;;5034607;28;20068;-55
2021/01/27 04:38:50;;;;;;;20.05;13.93;;;7.30;99.90;;;;;;5035266;28;20041;-56
2021/01/27 04:41:17;;;;;;;21.48;13.02;;;7.40;99.90;;;;;;5034254;28;20068;-56
2021/01/27 04:43:46;;;;;;;20.27;12.65;;;7.40;99.90;;;;;;5034069;28;20497;-55
2021/01/27 04:46:29;;;;;;;21.60;12.73;;;7.50;99.90;;;;;;5049070;28;20091;-57
2021/01/27 04:49:09;;;;;;;20.65;12.45;;;7.50;99.90;;;;;;5034507;28;20041;-54
2021/01/27 04:51:56;;;;;;;26.05;13.13;;;7.50;99.90;;;;;;5034792;28;20076;-57
2021/01/27 04:54:35;;;;;;;18.67;12.82;;;7.40;99.90;;;;;;5033234;28;20033;-56
2021/01/27 04:57:20;;;;;;;23.33;13.68;;;7.40;99.90;;;;;;5034245;28;20056;-56
2021/01/27 05:00:13;;;;;;;20.65;12.95;;;7.30;99.90;;;;;;5041975;28;20489;-53
2021/01/27 05:03:10;;;;;;;21.65;13.23;;;7.30;99.90;;;;;;5025322;28;20037;-56
2021/01/27 05:05:39;;;;;;;19.38;13.68;;;7.30;99.90;;;;;;5028975;28;20467;-58
2021/01/27 05:08:14;;;;;;;19.73;12.38;;;7.30;99.90;;;;;;5033875;28;20064;-57
2021/01/27 05:10:49;;;;;;;19.55;12.93;;;7.30;99.90;;;;;;5032528;28;20029;-55
2021/01/27 05:13:31;;;;;;;17.50;12.07;;;7.30;99.90;;;;;;5036849;28;20033;-55
2021/01/27 05:16:03;;;;;;;29.70;12.00;;;7.30;99.90;;;;;;5033259;28;20042;-55
2021/01/27 05:18:29;;;;;;;20.38;11.70;;;7.30;99.90;;;;;;5033697;28;20083;-53
2021/01/27 05:20:55;;;;;;;21.70;12.43;;;7.30;99.90;;;;;;5035564;28;20041;-57
2021/01/27 05:23:21;;;;;;;19.13;11.23;;;7.30;99.90;;;;;;5033229;28;20052;-56
2021/01/27 05:25:59;;;;;;;19.55;11.77;;;7.40;99.90;;;;;;5032236;28;20033;-56
2021/01/27 05:28:31;;;;;;;21.88;11.48;;;7.40;99.90;;;;;;5032472;28;20092;-56
2021/01/27 05:30:57;;;;;;;22.08;12.30;;;7.40;99.90;;;;;;5032890;28;20060;-57
2021/01/27 05:33:51;;;;;;;18.73;11.23;;;7.40;99.90;;;;;;5045277;28;20033;-51
2021/01/27 05:36:23;;;;;;;17.17;10.90;;;7.30;99.90;;;;;;5033520;28;20451;-53
2021/01/27 05:38:50;;;;;;;16.73;10.02;;;7.30;99.90;;;;;;5037136;28;20025;-56
2021/01/27 05:41:24;;;;;;;21.25;11.77;;;7.30;99.90;;;;;;5032516;28;20033;-57
2021/01/27 05:43:54;;;;;;;17.05;10.45;;;7.20;99.90;;;;;;5033783;28;20030;-59
2021/01/27 05:46:32;;;;;;;20.73;10.68;;;7.20;99.90;;;;;;5038733;28;20128;-55
2021/01/27 05:48:58;;;;;;;20.38;11.25;;;7.20;99.90;;;;;;5032689;28;20364;-58
2021/01/27 05:51:35;;;;;;;23.05;11.25;;;7.20;99.90;;;;;;5032970;28;20144;-56
2021/01/27 05:54:25;;;;;;;15.65;11.23;;;7.20;99.90;;;;;;5031935;28;20117;-55
2021/01/27 05:56:54;;;;;;;18.98;11.57;;;7.10;99.90;;;;;;5034202;28;20041;-57
2021/01/27 05:59:28;;;;;;;17.30;10.45;;;7.00;99.90;;;;;;5045599;28;20047;-55
2021/01/27 06:02:01;;;;;;;18.30;10.75;;;7.10;99.90;;;;;;5040161;28;20026;-56
2021/01/27 06:04:29;;;;;;;17.30;10.95;;;7.10;99.90;;;;;;5037749;28;20065;-56
2021/01/27 06:06:57;;;;;;;19.38;11.80;;;7.10;99.90;;;;;;5033367;28;20040;-57
2021/01/27 06:09:43;;;;;;;21.23;11.30;;;7.10;99.90;;;;;;5033513;28;20044;-54
2021/01/27 06:12:18;;;;;;;20.35;12.02;;;7.10;99.90;;;;;;5037120;28;20048;-56
2021/01/27 06:14:48;;;;;;;26.90;13.43;;;7.10;99.90;;;;;;5030246;28;20840;-57
2021/01/27 06:17:24;;;;;;;23.38;12.57;;;7.20;99.90;;;;;;5040262;28;20067;-57
2021/01/27 06:20:00;;;;;;;19.98;13.15;;;7.20;99.90;;;;;;5038534;28;20483;-55
2021/01/27 06:22:53;;;;;;;26.50;14.05;;;7.10;99.90;;;;;;5036313;28;20087;-56
2021/01/27 06:25:53;;;;;;;24.92;14.23;;;7.10;99.90;;;;;;5024642;28;20116;-54
2021/01/27 06:28:38;;;;;;;25.48;13.35;;;7.10;99.90;;;;;;5037183;28;20029;-55
2021/01/27 06:31:25;;;;;;;23.40;14.47;;;7.10;99.90;;;;;;5027241;28;20136;-57
2021/01/27 06:34:05;;;;;;;25.83;14.68;;;7.10;99.90;;;;;;5032126;28;20034;-55
2021/01/27 06:36:51;;;;;;;26.67;14.00;;;7.10;99.90;;;;;;5043012;28;20052;-53
2021/01/27 06:39:48;;;;;;;24.35;14.57;;;7.00;99.90;;;;;;5043954;28;20063;-56
2021/01/27 06:42:26;;;;;;;21.05;13.63;;;7.10;99.90;;;;;;5022819;28;20520;-55
2021/01/27 06:45:22;;;;;;;28.10;14.27;;;7.10;99.90;;;;;;5031710;28;20049;-57
2021/01/27 06:48:10;;;;;;;22.45;14.13;;;7.10;99.90;;;;;;5032686;28;20030;-55
2021/01/27 06:50:58;;;;;;;26.60;14.57;;;7.00;99.90;;;;;;5031397;28;20061;-57
2021/01/27 06:53:41;;;;;;;28.60;15.40;;;7.10;99.90;;;;;;5027864;28;20043;-55
2021/01/27 06:56:28;;;;;;;28.42;14.55;;;7.10;99.90;;;;;;5030801;28;20042;-59
2021/01/27 06:59:38;;;;;;;25.75;14.60;;;7.10;99.90;;;;;;5035802;28;20087;-58
2021/01/27 07:02:29;;;;;;;32.92;16.02;;;7.10;99.90;;;;;;5032601;28;20099;-58
2021/01/27 07:05:19;;;;;;;28.48;14.57;;;7.10;99.90;;;;;;5031097;28;20044;-57
2021/01/27 07:07:56;;;;;;;34.67;16.15;;;7.20;99.90;;;;;;5047781;28;20110;-53
2021/01/27 07:10:38;;;;;;;25.65;15.30;;;7.20;99.90;;;;;;5029747;28;20040;-54
2021/01/27 07:13:22;;;;;;;41.25;20.02;;;7.20;99.90;;;;;;5031687;28;20108;-56
2021/01/27 07:16:10;;;;;;;27.92;16.23;;;7.20;99.90;;;;;;5023645;28;20073;-56
2021/01/27 07:19:04;;;;;;;31.42;16.77;;;7.20;99.90;;;;;;5032736;28;20472;-58
2021/01/27 07:21:39;;;;;;;28.40;15.93;;;7.20;99.90;;;;;;5034729;28;20029;-58
2021/01/27 07:24:11;;;;;;;30.67;17.60;;;7.10;99.90;;;;;;5028323;28;20040;-58
2021/01/27 07:26:56;;;;;;;29.65;16.30;;;7.10;99.90;;;;;;5031148;28;20033;-58
2021/01/27 07:29:30;;;;;;;23.60;13.80;;;7.10;99.90;;;;;;5042037;28;20029;-59
2021/01/27 07:32:06;;;;;;;27.70;15.03;;;7.10;99.90;;;;;;5038997;28;20433;-56
2021/01/27 07:34:49;;;;;;;31.15;14.02;;;7.10;99.90;;;;;;5034145;28;20041;-56
2021/01/27 07:37:48;;;;;;;30.67;14.50;;;7.00;99.90;;;;;;5035038;28;20079;-55
2021/01/27 07:40:40;;;;;;;32.53;16.50;;;7.10;99.90;;;;;;5021136;28;20099;-57
2021/01/27 07:43:12;;;;;;;27.73;15.15;;;7.10;99.90;;;;;;5032081;28;20040;-57
2021/01/27 07:45:41;;;;;;;29.98;13.80;;;7.10;99.90;;;;;;5031117;28;20036;-59
2021/01/27 07:48:28;;;;;;;27.27;15.10;;;7.10;99.90;;;;;;5036702;28;20475;-57
2021/01/27 07:51:04;;;;;;;28.13;14.57;;;7.10;99.90;;;;;;5022855;28;20026;-57
2021/01/27 07:53:37;;;;;;;26.08;14.27;;;7.00;99.90;;;;;;5041653;28;20029;-57
2021/01/27 07:56:25;;;;;;;26.17;15.18;;;7.10;99.90;;;;;;5035549;28;20048;-58
2021/01/27 07:59:42;;;;;;;28.27;14.77;;;7.10;99.90;;;;;;5030109;28;20026;-58
2021/01/27 08:02:11;;;;;;;30.45;14.98;;;7.00;99.90;;;;;;5043730;28;20407;-56
2021/01/27 08:04:50;;;;;;;27.88;14.60;;;7.10;99.90;;;;;;5047796;28;20036;-56
2021/01/27 08:07:22;;;;;;;29.30;14.57;;;7.10;99.90;;;;;;5030074;28;20034;-57
2021/01/27 08:09:49;;;;;;;32.47;14.30;;;7.10;99.90;;;;;;5040015;28;20387;-58
2021/01/27 08:12:15;;;;;;;29.50;14.43;;;7.10;99.90;;;;;;5036038;28;20033;-57
2021/01/27 08:15:01;;;;;;;28.33;14.00;;;7.00;99.90;;;;;;5038506;28;20025;-58
2021/01/27 08:18:08;;;;;;;29.88;15.02;;;7.10;99.90;;;;;;5036772;28;20025;-55
2021/01/27 08:20:39;;;;;;;25.48;13.10;;;7.10;99.90;;;;;;5027722;28;20044;-59
2021/01/27 08:23:29;;;;;;;24.40;13.63;;;7.10;99.90;;;;;;5041661;28;20453;-54
2021/01/27 08:25:59;;;;;;;31.67;13.75;;;7.10;99.90;;;;;;5035989;28;20394;-57
2021/01/27 08:28:36;;;;;;;22.52;11.90;;;7.10;99.90;;;;;;5041952;28;20033;-55
2021/01/27 08:31:08;;;;;;;25.40;12.32;;;7.20;99.90;;;;;;5032932;28;20498;-56
2021/01/27 08:33:46;;;;;;;22.83;11.75;;;7.30;99.90;;;;;;5033997;28;20084;-57
2021/01/27 08:36:15;;;;;;;31.38;13.18;;;7.30;99.90;;;;;;5030840;28;20050;-61
2021/01/27 08:39:09;;;;;;;24.95;12.27;;;7.30;99.90;;;;;;5040561;28;20041;-59
2021/01/27 08:41:50;;;;;;;26.08;14.82;;;7.30;99.90;;;;;;5032056;28;20038;-57
2021/01/27 08:44:19;;;;;;;35.22;16.48;;;7.20;99.90;;;;;;5035843;28;20396;-57
2021/01/27 08:46:50;;;;;;;29.58;14.95;;;7.20;99.90;;;;;;5034903;28;20045;-56
2021/01/27 08:49:47;;;;;;;21.42;12.38;;;7.20;99.90;;;;;;5040804;28;20478;-60
2021/01/27 08:52:13;;;;;;;34.58;16.63;;;7.20;99.90;;;;;;5031443;28;20038;-57
2021/01/27 08:54:48;;;;;;;30.25;15.52;;;7.10;99.90;;;;;;5034175;28;20510;-57
2021/01/27 08:57:38;;;;;;;17.80;11.35;;;7.10;99.90;;;;;;5032207;28;20033;-59
2021/01/27 09:00:09;;;;;;;21.55;11.05;;;7.10;99.90;;;;;;5034194;28;20734;-54
2021/01/27 09:03:00;;;;;;;27.08;13.80;;;7.00;99.90;;;;;;5037231;28;20044;-56
2021/01/27 09:05:26;;;;;;;20.25;12.07;;;7.00;99.90;;;;;;5031474;28;20124;-60
2021/01/27 09:08:12;;;;;;;40.55;20.48;;;7.10;99.90;;;;;;5029118;28;20151;-60
2021/01/27 09:10:40;;;;;;;27.30;14.77;;;7.10;99.90;;;;;;5030778;28;21337;-58
2021/01/27 09:13:33;;;;;;;27.23;15.70;;;7.00;99.90;;;;;;5035643;28;20033;-57
2021/01/27 09:16:17;;;;;;;25.52;14.27;;;7.10;99.90;;;;;;5036974;28;20096;-55
2021/01/27 09:18:55;;;;;;;28.05;15.57;;;7.20;99.90;;;;;;5039927;28;20036;-60
2021/01/27 09:21:22;;;;;;;30.92;14.30;;;7.20;99.90;;;;;;5032812;28;20041;-60
2021/01/27 09:23:56;;;;;;;26.58;14.07;;;7.40;99.90;;;;;;5036448;28;20076;-58
2021/01/27 09:26:37;;;;;;;22.77;11.27;;;7.50;99.90;;;;;;5042040;28;20132;-58
2021/01/27 09:29:12;;;;;;;22.98;10.57;;;7.50;99.90;;;;;;5033405;28;20574;-54
2021/01/27 09:31:38;;;;;;;21.85;10.57;;;7.50;99.90;;;;;;5030856;28;20379;-58
2021/01/27 09:34:28;;;;;;;20.30;10.40;;;7.60;99.90;;;;;;5031580;28;20038;-53
2021/01/27 09:37:11;;;;;;;19.92;11.00;;;7.60;99.90;;;;;;5027950;28;20030;-56
2021/01/27 09:39:39;;;;;;;21.50;10.63;;;7.70;99.90;;;;;;5045511;28;20103;-56
2021/01/27 09:42:25;;;;;;;21.23;10.65;;;7.70;99.90;;;;;;5037483;28;20036;-55
2021/01/27 09:45:11;;;;;;;20.50;11.15;;;7.70;99.90;;;;;;5036822;28;20120;-59
2021/01/27 09:47:42;;;;;;;18.10;10.88;;;7.80;99.90;;;;;;5031971;28;20028;-59
2021/01/27 09:50:11;;;;;;;22.67;12.10;;;7.80;99.90;;;;;;5032013;28;20481;-58
2021/01/27 09:52:42;;;;;;;20.80;11.88;;;7.90;99.90;;;;;;5033775;28;20041;-59
2021/01/27 09:55:12;;;;;;;30.55;14.35;;;7.90;99.90;;;;;;5034490;28;20079;-60
2021/01/27 09:57:42;;;;;;;20.35;11.30;;;8.00;99.90;;;;;;5032219;28;20124;-59
2021/01/27 10:00:12;;;;;;;19.45;10.90;;;8.00;99.90;;;;;;5028400;28;20030;-60
2021/01/27 10:02:38;;;;;;;21.52;11.52;;;8.10;99.90;;;;;;5031836;28;20028;-58
2021/01/27 10:05:37;;;;;;;20.08;11.63;;;8.10;99.90;;;;;;5032065;28;20025;-57
2021/01/27 10:08:24;;;;;;;20.27;10.55;;;8.20;99.90;;;;;;5031202;28;20047;-57
2021/01/27 10:10:59;;;;;;;17.70;10.68;;;8.20;99.90;;;;;;5030559;28;20483;-58
2021/01/27 10:13:31;;;;;;;22.17;10.73;;;8.30;99.90;;;;;;5030774;28;20036;-56
2021/01/27 10:16:06;;;;;;;21.23;10.20;;;8.40;99.90;;;;;;5030203;28;20033;-59
2021/01/27 10:18:32;;;;;;;18.42;8.65;;;8.40;99.90;;;;;;5034130;28;20025;-57
2021/01/27 10:21:05;;;;;;;12.65;7.63;;;8.40;99.90;;;;;;5031806;28;20108;-57
2021/01/27 10:23:41;;;;;;;18.63;7.72;;;8.50;99.90;;;;;;5033528;28;20475;-55
2021/01/27 10:26:29;;;;;;;18.77;7.47;;;8.60;99.90;;;;;;5031735;28;20075;-57
2021/01/27 10:29:20;;;;;;;13.48;8.05;;;8.60;99.90;;;;;;5029884;28;20028;-58
2021/01/27 10:31:54;;;;;;;16.85;8.18;;;8.70;99.90;;;;;;5031097;28;20529;-58
2021/01/27 10:34:43;;;;;;;17.63;8.52;;;8.70;99.90;;;;;;5031855;28;20037;-58
2021/01/27 10:37:43;;;;;;;17.13;7.45;;;8.80;99.90;;;;;;5033373;28;20072;-57
2021/01/27 10:40:12;;;;;;;15.00;6.28;;;8.90;99.90;;;;;;5024798;28;20046;-54
2021/01/27 10:42:40;;;;;;;11.55;5.97;;;8.90;99.90;;;;;;5031434;28;20108;-58
2021/01/27 10:45:30;;;;;;;13.52;7.07;;;8.90;99.90;;;;;;5031672;28;20391;-57
2021/01/27 10:48:05;;;;;;;12.18;6.90;;;9.00;99.90;;;;;;5031615;28;20048;-55
2021/01/27 10:50:32;;;;;;;16.50;7.35;;;9.00;99.90;;;;;;5032388;28;20415;-56
2021/01/27 10:52:59;;;;;;;14.98;7.10;;;9.00;99.90;;;;;;5030960;28;20062;-54
2021/01/27 10:55:31;;;;;;;13.55;6.90;;;9.10;99.90;;;;;;5031800;28;20460;-58
2021/01/27 10:58:14;;;;;;;15.02;7.28;;;9.10;99.90;;;;;;5030605;28;20044;-59
2021/01/27 11:00:40;;;;;;;15.95;6.63;;;9.20;99.90;;;;;;5031949;28;20036;-57
2021/01/27 11:03:07;;;;;;;23.70;10.85;;;9.20;99.90;;;;;;5030515;28;20025;-58
2021/01/27 11:05:33;;;;;;;14.00;6.60;;;9.20;99.90;;;;;;5024345;28;20033;-55
2021/01/27 11:08:00;;;;;;;12.88;6.78;;;9.20;99.90;;;;;;5031999;28;20037;-56
2021/01/27 11:10:27;;;;;;;18.63;7.68;;;9.20;99.90;;;;;;5033215;28;20029;-59
2021/01/27 11:12:53;;;;;;;13.63;6.95;;;9.30;99.90;;;;;;5034776;28;20037;-55
2021/01/27 11:15:20;;;;;;;16.13;6.65;;;9.40;99.90;;;;;;5031321;28;20036;-56
2021/01/27 11:17:47;;;;;;;14.77;6.68;;;9.40;99.90;;;;;;5030813;28;20124;-58
2021/01/27 11:20:14;;;;;;;13.82;6.22;;;9.40;99.90;;;;;;5032107;28;20514;-59
2021/01/27 11:22:40;;;;;;;9.82;5.28;;;9.50;99.90;;;;;;5040938;28;20021;-57
2021/01/27 11:25:06;;;;;;;10.57;5.05;;;9.50;99.90;;;;;;5037880;28;20440;-58
2021/01/27 11:27:32;;;;;;;12.32;4.85;;;9.50;99.90;;;;;;5032419;28;20047;-59
2021/01/27 11:29:57;;;;;;;14.40;4.80;;;9.60;99.90;;;;;;5046588;28;20359;-58
2021/01/27 11:32:23;;;;;;;11.63;4.45;;;9.70;99.90;;;;;;5045026;28;20079;-56
2021/01/27 11:34:48;;;;;;;13.23;5.43;;;9.70;99.90;;;;;;5044524;28;20052;-59
2021/01/27 11:37:14;;;;;;;9.38;4.22;;;9.80;99.90;;;;;;5029839;28;20037;-58
2021/01/27 11:39:40;;;;;;;10.30;4.45;;;9.80;99.90;;;;;;5036422;28;20021;-58
2021/01/27 11:42:06;;;;;;;11.27;5.35;;;9.80;99.90;;;;;;5033220;28;20134;-57
2021/01/27 11:44:31;;;;;;;11.43;4.43;;;9.80;99.90;;;;;;5040506;28;20462;-58
2021/01/27 11:46:57;;;;;;;12.90;4.78;;;9.90;99.90;;;;;;5034121;28;20029;-55
2021/01/27 11:49:23;;;;;;;10.13;4.72;;;10.00;99.90;;;;;;5035204;28;20124;-55
2021/01/27 11:51:49;;;;;;;11.10;4.80;;;10.00;99.90;;;;;;5031325;28;20033;-56
2021/01/27 11:54:15;;;;;;;9.40;4.60;;;10.10;99.90;;;;;;5033315;28;20112;-57
2021/01/27 11:56:41;;;;;;;11.23;4.60;;;10.20;99.90;;;;;;5033113;28;20068;-57
2021/01/27 11:59:08;;;;;;;10.35;5.18;;;10.20;99.90;;;;;;5038355;28;20029;-59
2021/01/27 12:01:35;;;;;;;17.63;5.78;;;10.20;99.90;;;;;;5045989;28;20029;-58
2021/01/27 12:04:03;;;;;;;11.48;4.80;;;10.20;99.90;;;;;;5031859;28;20053;-56
2021/01/27 12:06:29;;;;;;;12.90;4.57;;;10.30;99.90;;;;;;5030566;28;20033;-57
2021/01/27 12:08:55;;;;;;;15.88;5.35;;;10.30;99.90;;;;;;5038692;28;20478;-54
2021/01/27 12:11:20;;;;;;;11.77;5.20;;;10.30;99.90;;;;;;5051002;28;20069;-56
2021/01/27 12:13:47;;;;;;;11.77;4.93;;;10.40;99.90;;;;;;5037679;28;20512;-55
2021/01/27 12:16:13;;;;;;;10.65;4.90;;;10.50;99.90;;;;;;5035405;28;20035;-55
2021/01/27 12:18:39;;;;;;;11.35;5.18;;;10.40;99.90;;;;;;5030138;28;20033;-57
2021/01/27 12:21:05;;;;;;;10.80;4.97;;;10.40;99.90;;;;;;5030819;28;20792;-58
2021/01/27 12:23:30;;;;;;;12.43;5.50;;;10.40;99.90;;;;;;5030680;28;20075;-58
2021/01/27 12:25:56;;;;;;;10.50;4.75;;;10.40;99.90;;;;;;5029947;28;20438;-60
2021/01/27 12:28:22;;;;;;;14.02;5.50;;;10.40;99.90;;;;;;5032636;28;20036;-57
2021/01/27 12:30:47;;;;;;;11.02;4.72;;;10.50;99.90;;;;;;5031297;28;20041;-58
2021/01/27 12:33:13;;;;;;;11.60;4.88;;;10.50;99.90;;;;;;5033822;28;20032;-57
2021/01/27 12:35:39;;;;;;;11.38;4.90;;;10.50;99.90;;;;;;5030308;28;20041;-55
2021/01/27 12:38:05;;;;;;;13.27;6.22;;;10.50;99.90;;;;;;5030849;28;20043;-56
2021/01/27 12:40:31;;;;;;;10.68;4.95;;;10.40;99.90;;;;;;5038968;28;20113;-60
2021/01/27 12:42:57;;;;;;;12.48;5.18;;;10.50;99.90;;;;;;5029718;28;20025;-59
2021/01/27 12:45:27;;;;;;;10.23;4.80;;;10.50;99.90;;;;;;5029798;28;20037;-60
2021/01/27 12:47:53;;;;;;;11.40;5.38;;;10.40;99.90;;;;;;5039042;28;20025;-58
2021/01/27 12:50:20;;;;;;;10.40;4.90;;;10.40;99.90;;;;;;5031169;28;20368;-58
2021/01/27 12:52:46;;;;;;;10.57;4.85;;;10.40;99.90;;;;;;5030436;28;20048;-57
2021/01/27 12:55:14;;;;;;;12.38;5.50;;;10.50;99.90;;;;;;5030759;28;20479;-57
2021/01/27 12:57:45;;;;;;;9.73;4.70;;;10.50;99.90;;;;;;5035708;28;20052;-55
2021/01/27 13:00:16;;;;;;;12.90;5.32;;;10.50;99.90;;;;;;5034740;28;20498;-57
2021/01/27 13:02:41;;;;;;;16.95;4.82;;;10.60;99.90;;;;;;5049035;28;20466;-60
2021/01/27 13:05:08;;;;;;;12.57;5.00;;;10.60;99.90;;;;;;5036546;28;20033;-57
2021/01/27 13:07:33;;;;;;;12.50;5.45;;;10.60;99.90;;;;;;5035234;28;20390;-56
2021/01/27 13:09:59;;;;;;;11.85;5.10;;;10.60;99.90;;;;;;5036030;28;20025;-60
2021/01/27 13:12:25;;;;;;;15.80;5.32;;;10.70;99.90;;;;;;5035745;28;20033;-58
2021/01/27 13:14:51;;;;;;;11.98;5.47;;;10.70;99.90;;;;;;5034777;28;20037;-58
2021/01/27 13:17:17;;;;;;;13.65;5.60;;;10.70;99.90;;;;;;5040677;28;20037;-58